In Rescue
 
Open Full Screen Window  High Contrast Mode
Wind Gusting 00 knots
08
March 31, 2020 2:47 PM CDT
Weather Information
Wind Direction
  120 °
Wind Speed
  08 kt (9 mph)
Wind Gust
  00 kt (0 mph)
Altimeter
30.06 in
Visibility
10 SM
Temperature
11° C
52° F
Dewpoint
-01° C
30° F
Humidity
44%
1hr Rain Fall
00.00 in.
24hr Rain Fall
00.00 in.
Sky Condition
Clear
VFR

METAR KPEX 311947Z AUTO 12008KT 10SM CLR 11/M01 A3006 RMK AO2 T01121015

FAA Disclaimer: The data displayed is for advisory purposes only and is not to be used for flight planning or operations.